createdAt,value
2023-04-16T00:02:14.812Z,5.21
2023-04-16T00:04:42.273Z,5.31
2023-04-16T00:07:09.621Z,5.23
2023-04-16T00:09:36.916Z,5.17
2023-04-16T00:12:04.351Z,5.10
2023-04-16T00:14:31.598Z,5.13
2023-04-16T00:16:58.937Z,5.21
2023-04-16T00:19:26.244Z,5.19
2023-04-16T00:21:53.609Z,5.06
2023-04-16T00:24:20.845Z,5.18
2023-04-16T00:26:48.124Z,5.09
2023-04-16T00:29:15.648Z,5.06
2023-04-16T00:31:42.907Z,4.98
2023-04-16T00:34:10.403Z,4.95
2023-04-16T00:36:37.727Z,4.89
2023-04-16T00:39:05.692Z,4.92
2023-04-16T00:41:32.934Z,4.90
2023-04-16T00:44:00.195Z,4.86
2023-04-16T00:46:27.512Z,4.89
2023-04-16T00:48:54.858Z,4.81
2023-04-16T00:51:22.088Z,4.88
2023-04-16T00:53:49.436Z,4.91
2023-04-16T00:56:17.772Z,4.85
2023-04-16T00:58:45.261Z,4.78
2023-04-16T01:01:14.505Z,4.77
2023-04-16T01:03:46.372Z,4.77
2023-04-16T01:06:14.047Z,4.75
2023-04-16T01:08:41.315Z,4.57
2023-04-16T01:11:08.721Z,4.57
2023-04-16T01:13:39.359Z,4.54
2023-04-16T01:16:08.173Z,4.49
2023-04-16T01:18:35.827Z,4.43
2023-04-16T01:21:04.128Z,4.39
2023-04-16T01:23:31.692Z,4.31
2023-04-16T01:25:59.070Z,4.29
2023-04-16T01:28:26.388Z,4.30
2023-04-16T01:30:53.666Z,4.38
2023-04-16T01:33:41.198Z,4.38
2023-04-16T01:36:09.049Z,4.36
2023-04-16T01:38:36.692Z,4.40
2023-04-16T01:41:03.975Z,4.46
2023-04-16T01:43:31.258Z,4.39
2023-04-16T01:46:29.724Z,4.36
2023-04-16T01:48:57.690Z,4.33
2023-04-16T01:51:24.980Z,4.23
2023-04-16T01:53:52.320Z,4.33
2023-04-16T01:56:19.587Z,4.36
2023-04-16T01:58:47.548Z,4.33
2023-04-16T02:01:16.806Z,4.32
2023-04-16T02:03:45.359Z,4.33
2023-04-16T02:06:13.007Z,4.33
2023-04-16T02:08:40.993Z,4.29
2023-04-16T02:11:08.342Z,4.15
2023-04-16T02:13:36.071Z,4.25
2023-04-16T02:16:03.428Z,4.32
2023-04-16T02:18:51.192Z,4.41
2023-04-16T02:21:20.574Z,4.41
2023-04-16T02:23:51.683Z,4.21
2023-04-16T02:26:23.104Z,4.23
2023-04-16T02:28:51.145Z,4.25
2023-04-16T02:31:22.429Z,4.30
2023-04-16T02:33:50.023Z,4.29
2023-04-16T02:36:17.303Z,4.30
2023-04-16T02:38:44.534Z,4.37
2023-04-16T02:41:11.851Z,4.38
2023-04-16T02:43:39.160Z,4.29
2023-04-16T02:46:06.749Z,4.45
2023-04-16T02:48:34.150Z,4.46
2023-04-16T02:51:01.414Z,4.50
2023-04-16T02:53:28.719Z,4.52
2023-04-16T02:55:56.084Z,4.52
2023-04-16T02:58:24.798Z,4.48
2023-04-16T03:00:52.768Z,4.32
2023-04-16T03:03:20.553Z,4.57
2023-04-16T03:05:48.176Z,4.59
2023-04-16T03:08:16.947Z,4.62
2023-04-16T03:10:44.271Z,4.62
2023-04-16T03:13:11.548Z,4.59
2023-04-16T03:15:38.844Z,4.69
2023-04-16T03:18:06.270Z,4.71
2023-04-16T03:20:33.598Z,4.72
2023-04-16T03:23:01.286Z,4.68
2023-04-16T03:25:28.641Z,4.71
2023-04-16T03:27:56.833Z,4.67
2023-04-16T03:30:24.598Z,4.70
2023-04-16T03:32:52.114Z,4.69
2023-04-16T03:35:19.626Z,4.68
2023-04-16T03:37:46.969Z,4.70
2023-04-16T03:40:14.611Z,4.66
2023-04-16T03:42:42.576Z,4.70
2023-04-16T03:45:10.242Z,4.68
2023-04-16T03:47:38.724Z,4.59
2023-04-16T03:50:06.344Z,4.56
2023-04-16T03:52:33.818Z,4.67
2023-04-16T03:55:03.742Z,4.68
2023-04-16T03:57:31.973Z,4.71
2023-04-16T04:00:06.427Z,4.74
2023-04-16T04:02:41.762Z,4.77
2023-04-16T04:05:16.066Z,4.74
2023-04-16T04:07:44.618Z,4.82
2023-04-16T04:10:12.056Z,4.81
2023-04-16T04:12:41.998Z,4.83
2023-04-16T04:15:09.928Z,4.86
2023-04-16T04:17:37.255Z,4.88
2023-04-16T04:20:05.012Z,4.88
2023-04-16T04:22:32.390Z,4.82
2023-04-16T04:24:59.747Z,4.97
2023-04-16T04:27:29.301Z,5.00
2023-04-16T04:29:56.921Z,4.98
2023-04-16T04:32:24.991Z,5.17
2023-04-16T04:34:52.342Z,5.23
2023-04-16T04:37:19.609Z,5.24
2023-04-16T04:39:46.966Z,5.33
2023-04-16T04:42:14.330Z,5.31
2023-04-16T04:44:41.770Z,5.34
2023-04-16T04:47:09.676Z,5.37
2023-04-16T04:49:36.975Z,5.44
2023-04-16T04:52:04.250Z,5.47
2023-04-16T04:54:32.618Z,5.57
2023-04-16T04:57:00.168Z,5.66
2023-04-16T04:59:28.362Z,5.71
2023-04-16T05:01:55.879Z,5.87
2023-04-16T05:04:23.149Z,6.06
2023-04-16T05:06:50.502Z,6.13
2023-04-16T05:09:17.903Z,6.26
2023-04-16T05:11:45.146Z,6.38
2023-04-16T05:14:12.469Z,6.44
2023-04-16T05:16:39.787Z,6.50
2023-04-16T05:19:07.165Z,6.59
2023-04-16T05:21:34.617Z,6.70
2023-04-16T05:24:01.903Z,6.73
2023-04-16T05:26:29.269Z,6.81
2023-04-16T05:28:56.597Z,6.90
2023-04-16T05:31:24.150Z,7.14
2023-04-16T05:33:51.473Z,7.19
2023-04-16T05:36:18.750Z,7.35
2023-04-16T05:38:46.159Z,7.56
2023-04-16T05:41:13.410Z,7.69
2023-04-16T05:43:40.722Z,7.75
2023-04-16T05:46:08.060Z,7.86
2023-04-16T05:48:35.424Z,8.06
2023-04-16T05:51:02.859Z,8.21
2023-04-16T05:53:30.303Z,8.34
2023-04-16T05:55:57.585Z,8.47
2023-04-16T05:58:24.868Z,8.59
2023-04-16T06:00:52.207Z,8.67
2023-04-16T06:03:19.628Z,8.74
2023-04-16T06:05:47.012Z,8.93
2023-04-16T06:08:14.300Z,9.06
2023-04-16T06:10:41.607Z,9.20
2023-04-16T06:13:08.875Z,9.29
2023-04-16T06:15:36.129Z,9.32
2023-04-16T06:18:03.556Z,9.47
2023-04-16T06:20:31.035Z,9.53
2023-04-16T06:22:58.339Z,9.58
2023-04-16T06:25:25.794Z,9.74
2023-04-16T06:27:53.109Z,9.88
2023-04-16T06:30:20.619Z,9.92
2023-04-16T06:32:48.158Z,10.09
2023-04-16T06:35:15.504Z,10.04
2023-04-16T06:37:43.931Z,9.98
2023-04-16T06:40:11.534Z,10.09
2023-04-16T06:42:38.795Z,10.22
2023-04-16T06:45:06.797Z,10.38
2023-04-16T06:47:34.119Z,10.36
2023-04-16T06:50:01.385Z,10.52
2023-04-16T06:52:29.210Z,10.44
2023-04-16T06:54:56.592Z,10.57
2023-04-16T06:57:23.868Z,10.64
2023-04-16T06:59:51.264Z,10.72
2023-04-16T07:02:18.791Z,10.78
2023-04-16T07:04:46.323Z,10.91
2023-04-16T07:07:13.626Z,11.04
2023-04-16T07:09:41.060Z,11.09
2023-04-16T07:12:08.449Z,11.15
2023-04-16T07:14:35.714Z,11.32
2023-04-16T07:17:02.963Z,11.42
2023-04-16T07:19:32.604Z,11.70
2023-04-16T07:22:00.331Z,11.85
2023-04-16T07:24:27.662Z,12.00
2023-04-16T07:26:54.983Z,12.31
2023-04-16T07:29:22.245Z,12.34
2023-04-16T07:31:49.708Z,12.35
2023-04-16T07:34:17.071Z,12.41
2023-04-16T07:36:44.409Z,12.66
2023-04-16T07:39:12.335Z,12.77
2023-04-16T07:41:41.179Z,13.06
2023-04-16T07:44:08.507Z,12.99
2023-04-16T07:46:45.513Z,13.32
2023-04-16T07:49:14.552Z,13.34
2023-04-16T07:51:41.880Z,13.67
2023-04-16T07:54:09.231Z,13.54
2023-04-16T07:56:36.504Z,13.47
2023-04-16T07:59:18.543Z,13.03
2023-04-16T08:01:49.824Z,13.39
2023-04-16T08:04:23.133Z,13.18
2023-04-16T08:06:51.544Z,13.32
2023-04-16T08:09:22.750Z,13.26
2023-04-16T08:11:50.159Z,13.32
2023-04-16T08:14:17.668Z,13.37
2023-04-16T08:16:45.131Z,13.31
2023-04-16T08:19:12.749Z,13.32
2023-04-16T08:21:40.542Z,13.44
2023-04-16T08:24:08.053Z,13.41
2023-04-16T08:26:35.427Z,13.49
2023-04-16T08:29:02.727Z,13.84
2023-04-16T08:31:30.053Z,13.88
2023-04-16T08:33:57.382Z,14.14
2023-04-16T08:36:24.620Z,13.98
2023-04-16T08:38:52.360Z,13.98
2023-04-16T08:41:19.680Z,13.99
2023-04-16T08:43:47.102Z,14.06
2023-04-16T08:46:15.374Z,14.18
2023-04-16T08:48:43.638Z,14.46
2023-04-16T08:51:11.194Z,14.63
2023-04-16T08:53:54.002Z,14.86
2023-04-16T08:56:22.974Z,14.83
2023-04-16T08:58:50.874Z,14.83
2023-04-16T09:01:18.771Z,15.12
2023-04-16T09:03:47.387Z,15.17
2023-04-16T09:06:16.399Z,14.92
2023-04-16T09:08:46.741Z,15.43
2023-04-16T09:11:14.152Z,15.45
2023-04-16T09:13:41.480Z,15.78
2023-04-16T09:16:09.527Z,15.83
2023-04-16T09:18:36.821Z,15.72
2023-04-16T09:21:04.800Z,15.95
2023-04-16T09:23:32.143Z,16.13
2023-04-16T09:25:59.440Z,16.39
2023-04-16T09:28:43.398Z,16.39
2023-04-16T09:31:12.322Z,16.42
2023-04-16T09:33:39.617Z,16.15
2023-04-16T09:36:07.615Z,16.17
2023-04-16T09:38:51.524Z,16.23
2023-04-16T09:41:19.088Z,16.45
2023-04-16T09:43:59.207Z,16.26
2023-04-16T09:46:30.776Z,16.70
2023-04-16T09:48:58.292Z,16.89
2023-04-16T09:51:27.026Z,16.91
2023-04-16T09:53:54.954Z,16.98
2023-04-16T09:56:24.972Z,17.10
2023-04-16T09:58:57.618Z,16.92
2023-04-16T10:01:25.506Z,17.25
2023-04-16T10:03:54.170Z,17.35
2023-04-16T10:06:22.989Z,17.27
2023-04-16T10:08:51.400Z,17.41
2023-04-16T10:11:19.315Z,17.55
2023-04-16T10:13:46.677Z,17.88
2023-04-16T10:16:14.006Z,18.11
2023-04-16T10:18:42.350Z,18.10
2023-04-16T10:21:12.197Z,17.84
2023-04-16T10:23:40.035Z,17.61
2023-04-16T10:26:07.428Z,17.98
2023-04-16T10:28:37.582Z,17.67
2023-04-16T10:31:07.642Z,17.93
2023-04-16T10:33:36.587Z,17.94
2023-04-16T10:36:14.176Z,17.89
2023-04-16T10:38:45.352Z,18.25
2023-04-16T10:41:12.760Z,18.08
2023-04-16T10:43:42.665Z,18.11
2023-04-16T10:46:26.819Z,18.50
2023-04-16T10:48:54.582Z,18.46
2023-04-16T10:51:33.111Z,18.46
2023-04-16T10:54:04.239Z,18.57
2023-04-16T10:56:35.342Z,18.73
2023-04-16T10:59:06.500Z,18.72
2023-04-16T11:01:55.082Z,18.71
2023-04-16T11:04:25.446Z,18.49
2023-04-16T11:07:11.685Z,18.55
2023-04-16T11:10:02.135Z,18.75
2023-04-16T11:12:29.369Z,18.87
2023-04-16T11:15:15.634Z,19.10
2023-04-16T11:17:46.869Z,19.03
2023-04-16T11:20:27.752Z,18.82
2023-04-16T11:22:56.698Z,19.02
2023-04-16T11:25:29.883Z,19.23
2023-04-16T11:27:59.289Z,19.27
2023-04-16T11:30:37.496Z,19.17
2023-04-16T11:33:08.779Z,18.96
2023-04-16T11:35:36.128Z,18.84
2023-04-16T11:38:04.170Z,19.28
2023-04-16T11:40:31.824Z,19.37
2023-04-16T11:43:14.304Z,19.54
2023-04-16T11:46:01.596Z,19.52
2023-04-16T11:48:49.646Z,19.61
2023-04-16T11:51:17.146Z,19.53
2023-04-16T11:53:52.908Z,19.84
2023-04-16T11:56:30.070Z,20.14
2023-04-16T11:59:10.275Z,19.99
2023-04-16T12:01:38.316Z,20.05
2023-04-16T12:04:06.373Z,20.05
2023-04-16T12:06:33.935Z,20.12
2023-04-16T12:09:01.493Z,19.66
2023-04-16T12:11:41.402Z,19.64
2023-04-16T12:14:09.358Z,19.51
2023-04-16T12:16:36.725Z,19.32
2023-04-16T12:19:04.551Z,19.46
2023-04-16T12:21:45.026Z,19.47
2023-04-16T12:24:13.763Z,19.81
2023-04-16T12:26:42.783Z,20.08
2023-04-16T12:29:16.626Z,19.82
2023-04-16T12:31:44.375Z,19.46
2023-04-16T12:34:11.769Z,19.51
2023-04-16T12:36:39.138Z,19.57
2023-04-16T12:39:07.491Z,19.67
2023-04-16T12:41:36.940Z,19.83
2023-04-16T12:44:09.197Z,20.11
2023-04-16T12:46:37.539Z,20.10
2023-04-16T12:49:05.019Z,20.31
2023-04-16T12:51:33.309Z,20.07
2023-04-16T12:54:01.493Z,20.53
2023-04-16T12:56:28.739Z,20.61
2023-04-16T12:58:56.219Z,20.00
2023-04-16T13:01:23.679Z,20.40
2023-04-16T13:03:51.217Z,20.50
2023-04-16T13:06:18.752Z,20.86
2023-04-16T13:08:46.030Z,20.54
2023-04-16T13:11:13.447Z,20.41
2023-04-16T13:13:40.958Z,20.36
2023-04-16T13:16:08.735Z,20.58
2023-04-16T13:18:40.169Z,20.86
2023-04-16T13:21:07.457Z,20.74
2023-04-16T13:23:35.268Z,21.08
2023-04-16T13:26:02.620Z,21.00
2023-04-16T13:28:29.862Z,20.80
2023-04-16T13:30:57.507Z,20.91
2023-04-16T13:33:25.966Z,21.01
2023-04-16T13:35:53.276Z,20.84
2023-04-16T13:38:20.558Z,20.77
2023-04-16T13:40:47.805Z,20.95
2023-04-16T13:43:16.643Z,20.56
2023-04-16T13:45:43.992Z,20.29
2023-04-16T13:48:11.332Z,20.48
2023-04-16T13:50:38.590Z,20.42
2023-04-16T13:53:05.869Z,20.16
2023-04-16T13:55:33.167Z,20.16
2023-04-16T13:58:00.494Z,20.24
2023-04-16T14:00:27.790Z,20.36
2023-04-16T14:02:55.209Z,20.50
2023-04-16T14:05:25.137Z,20.64
2023-04-16T14:07:53.862Z,20.40
2023-04-16T14:10:21.274Z,20.32
2023-04-16T14:12:48.561Z,20.58
2023-04-16T14:15:15.907Z,20.53
2023-04-16T14:17:43.957Z,21.08
2023-04-16T14:20:12.809Z,21.32
2023-04-16T14:22:40.170Z,21.82
2023-04-16T14:25:07.628Z,22.32
2023-04-16T14:27:35.158Z,22.21
2023-04-16T14:30:02.466Z,22.41
2023-04-16T14:32:30.628Z,22.93
2023-04-16T14:34:57.969Z,23.50
2023-04-16T14:37:26.352Z,24.22
2023-04-16T14:39:54.107Z,24.03
2023-04-16T14:42:22.422Z,23.55
2023-04-16T14:44:49.790Z,23.61
2023-04-16T14:47:17.103Z,24.41
2023-04-16T14:49:44.382Z,24.40
2023-04-16T14:52:11.684Z,23.93
2023-04-16T14:54:38.948Z,23.78
2023-04-16T14:57:06.223Z,24.29
2023-04-16T14:59:33.580Z,24.02
2023-04-16T15:02:01.137Z,24.59
2023-04-16T15:04:28.598Z,24.66
2023-04-16T15:06:59.043Z,24.52
2023-04-16T15:09:27.551Z,24.58
2023-04-16T15:11:54.891Z,23.82
2023-04-16T15:14:22.174Z,23.61
2023-04-16T15:16:49.650Z,23.68
2023-04-16T15:19:17.690Z,23.42
2023-04-16T15:21:47.495Z,24.14
2023-04-16T15:24:15.964Z,23.55
2023-04-16T15:26:43.442Z,23.70
2023-04-16T15:29:10.841Z,23.91
2023-04-16T15:31:38.124Z,23.15
2023-04-16T15:34:05.587Z,23.21
2023-04-16T15:36:33.336Z,22.47
2023-04-16T15:39:00.708Z,22.38
2023-04-16T15:41:29.225Z,22.03
2023-04-16T15:43:56.505Z,21.72
2023-04-16T15:46:23.835Z,21.50
2023-04-16T15:48:51.178Z,20.61
2023-04-16T15:51:18.468Z,20.45
2023-04-16T15:53:45.881Z,19.98
2023-04-16T15:56:13.191Z,20.08
2023-04-16T15:58:40.489Z,19.71
2023-04-16T16:01:07.735Z,19.68
2023-04-16T16:03:36.136Z,19.63
2023-04-16T16:06:08.498Z,19.53
2023-04-16T16:08:36.063Z,19.37
2023-04-16T16:11:03.351Z,19.23
2023-04-16T16:13:30.670Z,18.96
2023-04-16T16:15:57.973Z,18.97
2023-04-16T16:18:25.211Z,18.74
2023-04-16T16:20:57.407Z,18.62
2023-04-16T16:23:25.156Z,18.55
2023-04-16T16:25:52.524Z,18.67
2023-04-16T16:28:20.611Z,18.56
2023-04-16T16:30:48.088Z,18.41
2023-04-16T16:33:15.468Z,18.30
2023-04-16T16:35:42.753Z,18.09
2023-04-16T16:38:10.023Z,18.16
2023-04-16T16:40:38.562Z,18.02
2023-04-16T16:43:05.962Z,17.94
2023-04-16T16:45:33.297Z,17.79
2023-04-16T16:48:00.666Z,17.79
2023-04-16T16:50:27.939Z,17.75
2023-04-16T16:52:55.262Z,17.59
2023-04-16T16:55:22.673Z,17.67
2023-04-16T16:57:50.117Z,17.52
2023-04-16T17:00:19.968Z,17.38
2023-04-16T17:02:48.360Z,17.38
2023-04-16T17:05:15.761Z,17.20
2023-04-16T17:07:43.059Z,17.24
2023-04-16T17:10:13.090Z,17.06
2023-04-16T17:12:40.853Z,17.10
2023-04-16T17:15:08.576Z,17.04
2023-04-16T17:17:35.987Z,16.94
2023-04-16T17:20:08.897Z,16.87
2023-04-16T17:22:37.071Z,16.81
2023-04-16T17:25:04.757Z,16.69
2023-04-16T17:27:35.164Z,16.66
2023-04-16T17:30:03.134Z,16.49
2023-04-16T17:32:32.488Z,16.39
2023-04-16T17:35:04.513Z,16.35
2023-04-16T17:37:32.060Z,16.27
2023-04-16T17:39:59.555Z,16.09
2023-04-16T17:42:26.807Z,16.16
2023-04-16T17:44:54.114Z,16.16
2023-04-16T17:47:21.483Z,16.09
2023-04-16T17:49:48.868Z,16.07
2023-04-16T17:52:16.317Z,16.01
2023-04-16T17:54:43.738Z,16.01
2023-04-16T17:57:11.163Z,15.93
2023-04-16T17:59:38.493Z,15.81
2023-04-16T18:02:06.018Z,15.83
2023-04-16T18:04:33.513Z,15.83
2023-04-16T18:07:00.974Z,15.87
2023-04-16T18:09:28.345Z,15.84
2023-04-16T18:11:56.755Z,15.75
2023-04-16T18:14:24.142Z,15.72
2023-04-16T18:16:51.423Z,15.75
2023-04-16T18:19:18.712Z,15.73
2023-04-16T18:21:46.051Z,15.72
2023-04-16T18:24:13.973Z,15.69
2023-04-16T18:26:41.478Z,15.65
2023-04-16T18:29:09.195Z,15.62
2023-04-16T18:31:36.713Z,15.52
2023-04-16T18:34:04.114Z,15.54
2023-04-16T18:36:31.644Z,15.43
2023-04-16T18:39:01.475Z,15.42
2023-04-16T18:41:43.745Z,15.38
2023-04-16T18:44:11.193Z,15.34
2023-04-16T18:46:38.538Z,15.23
2023-04-16T18:49:05.981Z,15.31
2023-04-16T18:51:33.279Z,15.21
2023-04-16T18:54:00.573Z,15.23
2023-04-16T18:56:29.762Z,15.25
2023-04-16T18:58:57.063Z,15.22
2023-04-16T19:01:24.354Z,15.25
2023-04-16T19:03:51.680Z,15.25
2023-04-16T19:06:18.964Z,15.28
2023-04-16T19:08:46.290Z,15.31
2023-04-16T19:11:13.588Z,15.13
2023-04-16T19:13:40.891Z,15.34
2023-04-16T19:16:11.536Z,15.34
2023-04-16T19:18:39.153Z,15.35
2023-04-16T19:21:07.165Z,15.23
2023-04-16T19:23:34.519Z,15.34
2023-04-16T19:26:01.860Z,15.30
2023-04-16T19:28:29.195Z,15.22
2023-04-16T19:30:56.456Z,15.25
2023-04-16T19:33:23.767Z,15.20
2023-04-16T19:35:51.047Z,15.19
2023-04-16T19:38:18.370Z,15.19
2023-04-16T19:40:46.746Z,15.16
2023-04-16T19:43:14.173Z,15.13
2023-04-16T19:45:48.334Z,15.13
2023-04-16T19:48:15.847Z,15.11
2023-04-16T19:50:43.267Z,14.95
2023-04-16T19:53:11.175Z,15.03
2023-04-16T19:55:41.798Z,15.01
2023-04-16T19:58:09.321Z,14.93
2023-04-16T20:00:37.842Z,14.95
2023-04-16T20:03:05.552Z,14.81
2023-04-16T20:05:32.931Z,14.94
2023-04-16T20:08:00.396Z,14.94
2023-04-16T20:10:27.865Z,14.87
2023-04-16T20:12:55.154Z,14.83
2023-04-16T20:15:22.490Z,14.78
2023-04-16T20:17:49.975Z,14.77
2023-04-16T20:20:17.446Z,14.75
2023-04-16T20:22:44.792Z,14.72
2023-04-16T20:25:14.495Z,14.67
2023-04-16T20:27:41.821Z,14.63
2023-04-16T20:30:09.467Z,14.63
2023-04-16T20:32:36.731Z,14.49
2023-04-16T20:35:05.516Z,14.50
2023-04-16T20:37:38.062Z,14.48
2023-04-16T20:40:09.556Z,14.45
2023-04-16T20:42:36.858Z,14.41
2023-04-16T20:45:04.944Z,14.30
2023-04-16T20:47:34.849Z,14.35
2023-04-16T20:50:02.908Z,14.28
2023-04-16T20:52:30.173Z,14.29
2023-04-16T20:54:57.887Z,14.37
2023-04-16T20:57:25.856Z,14.37
2023-04-16T20:59:53.204Z,14.33
2023-04-16T21:02:21.095Z,14.35
2023-04-16T21:04:48.534Z,14.39
2023-04-16T21:07:15.915Z,14.26
2023-04-16T21:09:43.240Z,14.35
2023-04-16T21:12:10.538Z,14.26
2023-04-16T21:14:37.867Z,14.28
2023-04-16T21:17:05.239Z,14.18
2023-04-16T21:19:32.531Z,14.28
2023-04-16T21:21:59.776Z,14.13
2023-04-16T21:24:27.056Z,14.25
2023-04-16T21:26:54.297Z,14.20
2023-04-16T21:29:21.591Z,13.97
2023-04-16T21:31:48.923Z,14.12
2023-04-16T21:34:16.371Z,14.09
2023-04-16T21:36:43.732Z,14.06
2023-04-16T21:39:11.557Z,14.04
2023-04-16T21:41:39.074Z,14.00
2023-04-16T21:44:06.410Z,14.01
2023-04-16T21:46:33.721Z,14.01
2023-04-16T21:49:01.373Z,13.99
2023-04-16T21:51:31.376Z,13.98
2023-04-16T21:53:58.694Z,14.00
2023-04-16T21:56:26.099Z,13.97
2023-04-16T21:58:53.351Z,13.94
2023-04-16T22:01:20.737Z,13.89
2023-04-16T22:03:50.766Z,13.91
2023-04-16T22:06:18.413Z,13.90
2023-04-16T22:08:45.727Z,13.85
2023-04-16T22:11:13.063Z,13.77
2023-04-16T22:13:42.368Z,13.79
2023-04-16T22:16:11.780Z,13.90
2023-04-16T22:18:41.097Z,13.89
2023-04-16T22:21:08.424Z,13.85
2023-04-16T22:23:35.964Z,13.84
2023-04-16T22:26:04.169Z,13.71
2023-04-16T22:28:31.575Z,13.70
2023-04-16T22:30:58.828Z,13.68
2023-04-16T22:33:29.042Z,13.64
2023-04-16T22:35:56.315Z,13.68
2023-04-16T22:38:23.785Z,13.72
2023-04-16T22:40:51.052Z,13.69
2023-04-16T22:43:18.321Z,13.71
2023-04-16T22:45:48.696Z,13.71
2023-04-16T22:48:16.457Z,13.59
2023-04-16T22:50:48.638Z,13.67
2023-04-16T22:53:16.056Z,13.69
2023-04-16T22:55:43.307Z,13.67
2023-04-16T22:58:10.731Z,13.67
2023-04-16T23:00:38.150Z,13.66
2023-04-16T23:03:05.576Z,13.69
2023-04-16T23:05:33.152Z,13.69
2023-04-16T23:08:01.193Z,13.72
2023-04-16T23:10:28.465Z,13.69
2023-04-16T23:12:55.942Z,13.68
2023-04-16T23:15:23.206Z,13.66
2023-04-16T23:17:50.547Z,13.65
2023-04-16T23:20:17.885Z,13.56
2023-04-16T23:22:45.272Z,13.62
2023-04-16T23:25:12.664Z,13.62
2023-04-16T23:27:39.956Z,13.57
2023-04-16T23:30:08.333Z,13.54
2023-04-16T23:32:35.856Z,13.47
2023-04-16T23:35:03.228Z,13.52
2023-04-16T23:37:30.509Z,13.49
2023-04-16T23:39:57.779Z,13.52
2023-04-16T23:42:25.033Z,13.43
2023-04-16T23:44:52.385Z,13.46
2023-04-16T23:47:19.622Z,13.40
2023-04-16T23:49:46.932Z,13.38
2023-04-16T23:52:14.265Z,13.36
2023-04-16T23:54:41.514Z,13.35
2023-04-16T23:57:08.895Z,13.31
2023-04-16T23:59:36.181Z,13.19
